createdAt,value
2022-10-28T00:01:20.367Z,3.40
2022-10-28T00:03:49.019Z,3.25
2022-10-28T00:06:18.413Z,3.20
2022-10-28T00:08:46.157Z,3.25
2022-10-28T00:11:17.428Z,3.50
2022-10-28T00:13:45.488Z,3.20
2022-10-28T00:16:14.233Z,3.03
2022-10-28T00:18:43.170Z,3.40
2022-10-28T00:21:11.399Z,3.30
2022-10-28T00:23:38.924Z,3.20
2022-10-28T00:26:07.570Z,3.40
2022-10-28T00:28:35.130Z,3.28
2022-10-28T00:31:06.597Z,3.20
2022-10-28T00:33:34.099Z,3.33
2022-10-28T00:36:16.035Z,3.40
2022-10-28T00:38:44.187Z,2.92
2022-10-28T00:41:12.673Z,3.00
2022-10-28T00:43:41.594Z,3.40
2022-10-28T00:46:16.070Z,3.00
2022-10-28T00:48:44.430Z,3.28
2022-10-28T00:51:11.926Z,3.25
2022-10-28T00:53:41.760Z,3.28
2022-10-28T00:56:09.687Z,3.38
2022-10-28T00:58:37.143Z,3.15
2022-10-28T01:01:04.662Z,3.30
2022-10-28T01:03:32.189Z,3.00
2022-10-28T01:06:01.006Z,3.20
2022-10-28T01:08:28.898Z,3.03
2022-10-28T01:11:14.402Z,3.20
2022-10-28T01:13:46.872Z,3.17
2022-10-28T01:16:18.553Z,3.30
2022-10-28T01:18:50.222Z,3.00
2022-10-28T01:21:35.240Z,3.33
2022-10-28T01:24:09.960Z,3.10
2022-10-28T01:26:52.708Z,3.00
2022-10-28T01:29:29.879Z,3.05
2022-10-28T01:32:00.474Z,3.05
2022-10-28T01:34:30.046Z,3.08
2022-10-28T01:37:00.396Z,3.10
2022-10-28T01:39:31.603Z,3.40
2022-10-28T01:42:01.369Z,2.70
2022-10-28T01:44:31.128Z,3.30
2022-10-28T01:47:02.890Z,3.22
2022-10-28T01:49:32.271Z,3.10
2022-10-28T01:52:01.897Z,3.17
2022-10-28T01:54:30.419Z,3.10
2022-10-28T01:56:59.041Z,3.28
2022-10-28T01:59:27.796Z,3.15
2022-10-28T02:01:55.867Z,3.05
2022-10-28T02:04:24.822Z,3.10
2022-10-28T02:06:54.457Z,2.75
2022-10-28T02:09:29.273Z,3.10
2022-10-28T02:12:15.944Z,2.85
2022-10-28T02:15:16.497Z,3.30
2022-10-28T02:17:47.811Z,2.92
2022-10-28T02:20:19.663Z,3.17
2022-10-28T02:22:50.309Z,3.13
2022-10-28T02:25:21.714Z,2.80
2022-10-28T02:27:53.017Z,3.03
2022-10-28T02:30:22.222Z,3.10
2022-10-28T02:32:52.114Z,3.00
2022-10-28T02:35:23.890Z,3.20
2022-10-28T02:37:52.279Z,3.30
2022-10-28T02:40:21.540Z,3.10
2022-10-28T02:42:51.368Z,2.90
2022-10-28T02:45:20.253Z,3.00
2022-10-28T02:47:49.450Z,3.00
2022-10-28T02:50:18.897Z,2.90
2022-10-28T02:52:49.993Z,2.88
2022-10-28T02:55:17.535Z,2.90
2022-10-28T02:57:48.525Z,2.97
2022-10-28T03:00:17.226Z,3.20
2022-10-28T03:02:44.691Z,2.90
2022-10-28T03:05:12.272Z,2.95
2022-10-28T03:07:39.701Z,3.13
2022-10-28T03:10:10.206Z,3.10
2022-10-28T03:12:37.678Z,3.00
2022-10-28T03:15:05.417Z,3.10
2022-10-28T03:17:32.962Z,2.85
2022-10-28T03:20:00.379Z,3.20
2022-10-28T03:22:27.799Z,3.00
2022-10-28T03:24:55.237Z,2.80
2022-10-28T03:27:24.037Z,3.00
2022-10-28T03:29:51.479Z,2.65
2022-10-28T03:32:19.062Z,2.60
2022-10-28T03:34:47.335Z,2.90
2022-10-28T03:37:14.817Z,2.92
2022-10-28T03:39:42.246Z,3.10
2022-10-28T03:42:09.663Z,3.00
2022-10-28T03:44:38.445Z,3.20
2022-10-28T03:47:05.929Z,3.00
2022-10-28T03:49:33.350Z,2.90
2022-10-28T03:52:00.803Z,3.10
2022-10-28T03:54:28.218Z,3.20
2022-10-28T03:56:55.663Z,2.70
2022-10-28T03:59:23.123Z,3.00
2022-10-28T04:01:51.953Z,3.00
2022-10-28T04:04:19.463Z,3.05
2022-10-28T04:06:46.898Z,3.15
2022-10-28T04:09:14.538Z,2.80
2022-10-28T04:11:42.026Z,3.20
2022-10-28T04:14:09.458Z,3.08
2022-10-28T04:16:36.895Z,3.10
2022-10-28T04:19:05.662Z,3.13
2022-10-28T04:21:33.169Z,2.97
2022-10-28T04:24:00.604Z,3.05
2022-10-28T04:26:28.028Z,3.05
2022-10-28T04:28:55.466Z,3.20
2022-10-28T04:31:22.903Z,3.10
2022-10-28T04:33:50.395Z,3.30
2022-10-28T04:36:19.173Z,3.10
2022-10-28T04:38:46.624Z,3.00
2022-10-28T04:41:15.299Z,3.00
2022-10-28T04:43:42.734Z,3.13
2022-10-28T04:46:10.141Z,3.00
2022-10-28T04:48:37.731Z,3.10
2022-10-28T04:51:05.305Z,3.03
2022-10-28T04:53:34.219Z,3.20
2022-10-28T04:56:01.735Z,3.20
2022-10-28T04:58:29.153Z,3.10
2022-10-28T05:00:56.725Z,3.22
2022-10-28T05:03:24.187Z,3.03
2022-10-28T05:05:51.639Z,3.20
2022-10-28T05:08:19.079Z,3.20
2022-10-28T05:10:51.039Z,2.90
2022-10-28T05:13:18.610Z,2.80
2022-10-28T05:15:46.039Z,3.20
2022-10-28T05:18:13.486Z,3.45
2022-10-28T05:20:40.909Z,3.35
2022-10-28T05:23:08.374Z,3.00
2022-10-28T05:25:35.829Z,3.00
2022-10-28T05:28:04.678Z,3.03
2022-10-28T05:30:32.121Z,3.20
2022-10-28T05:33:00.691Z,3.13
2022-10-28T05:35:28.482Z,2.97
2022-10-28T05:37:56.153Z,3.20
2022-10-28T05:40:23.594Z,3.20
2022-10-28T05:42:51.333Z,3.00
2022-10-28T05:45:20.341Z,3.20
2022-10-28T05:47:48.526Z,2.88
2022-10-28T05:50:17.433Z,3.20
2022-10-28T05:52:46.932Z,3.30
2022-10-28T05:55:14.474Z,3.30
2022-10-28T05:57:41.915Z,3.15
2022-10-28T06:00:11.105Z,3.20
2022-10-28T06:02:39.992Z,3.08
2022-10-28T06:05:07.741Z,3.33
2022-10-28T06:07:35.832Z,3.10
2022-10-28T06:10:03.742Z,3.13
2022-10-28T06:12:29.802Z,3.28
2022-10-28T06:14:57.454Z,2.95
2022-10-28T06:17:24.907Z,3.10
2022-10-28T06:19:53.795Z,3.30
2022-10-28T06:22:21.603Z,3.15
2022-10-28T06:24:49.147Z,3.28
2022-10-28T06:27:16.575Z,3.17
2022-10-28T06:29:44.016Z,3.20
2022-10-28T06:32:11.570Z,2.92
2022-10-28T06:34:39.017Z,3.13
2022-10-28T06:37:09.161Z,3.30
2022-10-28T06:39:38.289Z,3.08
2022-10-28T06:42:05.851Z,3.20
2022-10-28T06:44:33.321Z,3.03
2022-10-28T06:47:02.272Z,3.20
2022-10-28T06:49:29.840Z,2.80
2022-10-28T06:51:57.264Z,3.30
2022-10-28T06:54:26.277Z,3.30
2022-10-28T06:56:53.690Z,3.05
2022-10-28T06:59:21.154Z,3.28
2022-10-28T07:01:48.694Z,2.80
2022-10-28T07:04:16.256Z,3.40
2022-10-28T07:06:45.424Z,3.58
2022-10-28T07:09:15.363Z,3.40
2022-10-28T07:11:44.898Z,3.55
2022-10-28T07:14:12.472Z,3.33
2022-10-28T07:16:40.028Z,3.58
2022-10-28T07:19:07.489Z,3.88
2022-10-28T07:21:35.109Z,4.03
2022-10-28T07:24:02.800Z,4.10
2022-10-28T07:26:30.240Z,4.00
2022-10-28T07:28:59.038Z,4.15
2022-10-28T07:31:27.705Z,4.10
2022-10-28T07:33:55.596Z,4.40
2022-10-28T07:36:23.170Z,4.20
2022-10-28T07:38:51.635Z,4.00
2022-10-28T07:41:19.456Z,4.10
2022-10-28T07:43:46.901Z,3.70
2022-10-28T07:46:16.034Z,3.60
2022-10-28T07:48:43.541Z,3.60
2022-10-28T07:51:12.632Z,3.40
2022-10-28T07:53:40.176Z,3.45
2022-10-28T07:56:09.610Z,3.42
2022-10-28T07:58:37.473Z,3.55
2022-10-28T08:01:05.580Z,3.40
2022-10-28T08:03:38.602Z,3.20
2022-10-28T08:06:07.516Z,3.30
2022-10-28T08:08:35.079Z,3.17
2022-10-28T08:11:09.429Z,3.20
2022-10-28T08:13:40.192Z,3.42
2022-10-28T08:16:08.321Z,3.55
2022-10-28T08:18:37.415Z,3.40
2022-10-28T08:21:06.030Z,3.35
2022-10-28T08:23:33.520Z,3.20
2022-10-28T08:26:01.070Z,3.40
2022-10-28T08:28:28.540Z,3.40
2022-10-28T08:31:08.227Z,3.60
2022-10-28T08:33:38.135Z,3.60
2022-10-28T08:36:06.256Z,3.60
2022-10-28T08:38:33.712Z,3.50
2022-10-28T08:41:05.661Z,3.30
2022-10-28T08:46:25.196Z,3.70
2022-10-28T08:48:54.022Z,3.80
2022-10-28T08:51:23.969Z,3.70
2022-10-28T08:53:54.432Z,3.30
2022-10-28T08:56:25.456Z,3.60
2022-10-28T08:58:54.759Z,3.60
2022-10-28T09:01:36.381Z,3.40
2022-10-28T09:04:07.026Z,3.50
2022-10-28T09:06:34.465Z,3.20
2022-10-28T09:09:01.968Z,3.50
2022-10-28T09:11:37.836Z,3.15
2022-10-28T09:14:12.417Z,3.60
2022-10-28T09:16:42.190Z,3.70
2022-10-28T09:19:15.448Z,3.50
2022-10-28T09:21:47.918Z,3.45
2022-10-28T09:24:18.653Z,3.10
2022-10-28T09:26:52.099Z,3.30
2022-10-28T09:29:26.799Z,3.53
2022-10-28T09:31:56.326Z,3.50
2022-10-28T09:34:31.159Z,3.67
2022-10-28T09:37:01.096Z,3.65
2022-10-28T09:39:29.683Z,3.60
2022-10-28T09:42:03.554Z,3.80
2022-10-28T09:44:37.400Z,3.40
2022-10-28T09:47:06.049Z,3.80
2022-10-28T09:49:37.406Z,3.63
2022-10-28T09:52:06.560Z,4.00
2022-10-28T09:54:35.841Z,4.00
2022-10-28T09:57:04.000Z,3.90
2022-10-28T09:59:31.581Z,3.90
2022-10-28T10:01:59.153Z,3.60
2022-10-28T10:04:27.979Z,3.53
2022-10-28T10:06:58.118Z,3.70
2022-10-28T10:09:27.798Z,3.45
2022-10-28T10:11:56.826Z,3.70
2022-10-28T10:14:27.572Z,3.20
2022-10-28T10:16:56.293Z,3.78
2022-10-28T10:19:24.661Z,3.60
2022-10-28T10:21:52.948Z,3.60
2022-10-28T10:24:30.432Z,3.60
2022-10-28T10:26:58.324Z,3.50
2022-10-28T10:29:25.907Z,3.53
2022-10-28T10:32:05.336Z,3.30
2022-10-28T10:34:33.972Z,3.50
2022-10-28T10:37:01.522Z,3.70
2022-10-28T10:39:34.474Z,3.70
2022-10-28T10:42:01.954Z,3.70
2022-10-28T10:44:33.755Z,3.60
2022-10-28T10:47:20.971Z,3.50
2022-10-28T10:49:49.752Z,3.60
2022-10-28T10:52:19.165Z,3.70
2022-10-28T10:55:06.286Z,3.80
2022-10-28T10:57:34.476Z,3.95
2022-10-28T11:00:02.132Z,3.85
2022-10-28T11:02:32.664Z,3.80
2022-10-28T11:05:01.492Z,3.90
2022-10-28T11:07:29.344Z,3.40
2022-10-28T11:09:58.272Z,3.80
2022-10-28T11:12:27.603Z,3.60
2022-10-28T11:14:56.339Z,3.70
2022-10-28T11:17:25.212Z,3.90
2022-10-28T11:19:54.940Z,3.80
2022-10-28T11:22:29.162Z,3.85
2022-10-28T11:25:11.533Z,3.90
2022-10-28T11:27:47.522Z,3.60
2022-10-28T11:30:19.954Z,4.10
2022-10-28T11:33:01.997Z,3.85
2022-10-28T11:35:47.860Z,3.90
2022-10-28T11:38:22.456Z,3.70
2022-10-28T11:40:58.842Z,3.40
2022-10-28T11:43:29.840Z,3.70
2022-10-28T11:46:03.136Z,3.85
2022-10-28T11:48:38.761Z,3.80
2022-10-28T11:51:13.071Z,3.78
2022-10-28T11:53:48.857Z,3.70
2022-10-28T11:56:23.014Z,3.70
2022-10-28T11:58:57.248Z,3.70
2022-10-28T12:01:32.753Z,3.78
2022-10-28T12:04:10.879Z,3.70
2022-10-28T12:06:46.581Z,3.63
2022-10-28T12:09:20.633Z,3.67
2022-10-28T12:14:31.004Z,3.80
2022-10-28T12:17:03.936Z,3.90
2022-10-28T12:19:34.785Z,3.80
2022-10-28T12:22:04.386Z,3.80
2022-10-28T12:24:32.738Z,3.78
2022-10-28T12:27:05.759Z,3.83
2022-10-28T12:29:37.141Z,4.00
2022-10-28T12:32:06.933Z,4.00
2022-10-28T12:37:10.218Z,3.80
2022-10-28T12:39:41.083Z,4.05
2022-10-28T12:42:14.196Z,3.93
2022-10-28T12:44:42.341Z,3.80
2022-10-28T12:47:15.395Z,3.60
2022-10-28T12:49:47.694Z,3.60
2022-10-28T12:52:20.722Z,3.80
2022-10-28T12:54:53.664Z,3.70
2022-10-28T12:57:23.852Z,3.90
2022-10-28T12:59:53.550Z,4.00
2022-10-28T13:02:23.424Z,4.03
2022-10-28T13:04:51.256Z,4.07
2022-10-28T13:07:28.515Z,4.10
2022-10-28T13:10:01.357Z,4.20
2022-10-28T13:12:43.808Z,4.10
2022-10-28T13:15:30.728Z,4.10
2022-10-28T13:18:07.557Z,4.20
2022-10-28T13:20:43.555Z,3.97
2022-10-28T13:23:17.349Z,4.10
2022-10-28T13:26:04.182Z,4.18
2022-10-28T13:28:46.437Z,4.25
2022-10-28T13:31:16.423Z,4.10
2022-10-28T13:33:49.026Z,3.92
2022-10-28T13:36:18.386Z,3.80
2022-10-28T13:38:50.833Z,3.90
2022-10-28T13:41:28.320Z,3.80
2022-10-28T13:43:59.921Z,3.88
2022-10-28T13:49:16.056Z,3.50
2022-10-28T13:51:47.349Z,3.80
2022-10-28T13:54:25.221Z,3.45
2022-10-28T13:56:52.753Z,3.60
2022-10-28T13:59:25.729Z,3.90
2022-10-28T14:04:57.149Z,3.60
2022-10-28T14:07:27.814Z,3.78
2022-10-28T14:09:58.630Z,3.85
2022-10-28T14:12:29.865Z,3.50
2022-10-28T14:14:59.626Z,3.80
2022-10-28T14:17:28.387Z,3.50
2022-10-28T14:19:57.733Z,3.60
2022-10-28T14:22:29.359Z,3.60
2022-10-28T14:27:39.154Z,3.50
2022-10-28T14:30:19.782Z,3.60
2022-10-28T14:33:02.122Z,3.50
2022-10-28T14:35:33.018Z,3.53
2022-10-28T14:38:27.518Z,3.70
2022-10-28T14:40:57.036Z,3.55
2022-10-28T14:43:34.359Z,3.58
2022-10-28T14:46:05.652Z,3.60
2022-10-28T14:48:53.959Z,3.63
2022-10-28T14:51:24.588Z,3.40
2022-10-28T14:53:57.372Z,3.50
2022-10-28T14:56:26.177Z,3.30
2022-10-28T14:58:54.431Z,3.50
2022-10-28T15:01:26.147Z,3.58
2022-10-28T15:06:26.937Z,3.17
2022-10-28T15:08:55.254Z,3.40
2022-10-28T15:11:22.909Z,3.40
2022-10-28T15:13:50.794Z,3.28
2022-10-28T15:16:20.426Z,3.28
2022-10-28T15:18:48.504Z,3.30
2022-10-28T15:21:18.164Z,3.30
2022-10-28T15:23:58.810Z,3.50
2022-10-28T15:26:26.259Z,3.40
2022-10-28T15:28:53.694Z,3.30
2022-10-28T15:31:21.398Z,3.10
2022-10-28T15:33:48.884Z,3.30
2022-10-28T15:36:18.470Z,3.50
2022-10-28T15:38:47.578Z,3.47
2022-10-28T15:41:39.000Z,3.42
2022-10-28T15:44:06.657Z,3.40
2022-10-28T15:46:35.119Z,3.25
2022-10-28T15:49:03.280Z,3.40
2022-10-28T15:51:30.734Z,3.30
2022-10-28T15:54:10.761Z,3.20
2022-10-28T15:56:53.916Z,3.42
2022-10-28T15:59:23.044Z,3.20
2022-10-28T16:01:50.626Z,3.20
2022-10-28T16:04:42.020Z,3.40
2022-10-28T16:07:10.148Z,3.10
2022-10-28T16:09:43.331Z,3.10
2022-10-28T16:12:14.822Z,3.03
2022-10-28T16:14:43.108Z,3.05
2022-10-28T16:17:15.164Z,3.15
2022-10-28T16:19:44.810Z,3.20
2022-10-28T16:22:13.595Z,3.30
2022-10-28T16:24:42.713Z,3.28
2022-10-28T16:27:15.851Z,3.28
2022-10-28T16:29:43.444Z,3.30
2022-10-28T16:32:12.461Z,3.50
2022-10-28T16:34:39.928Z,3.20
2022-10-28T16:37:19.344Z,3.30
2022-10-28T16:39:48.193Z,3.13
2022-10-28T16:42:15.732Z,3.30
2022-10-28T16:44:43.593Z,3.30
2022-10-28T16:47:12.490Z,3.20
2022-10-28T16:49:40.199Z,3.30
2022-10-28T16:52:08.317Z,3.20
2022-10-28T16:54:35.869Z,3.45
2022-10-28T16:57:05.090Z,3.40
2022-10-28T16:59:32.567Z,3.47
2022-10-28T17:02:00.358Z,2.97
2022-10-28T17:04:29.665Z,3.35
2022-10-28T17:06:57.381Z,3.40
2022-10-28T17:09:24.849Z,3.10
2022-10-28T17:11:52.573Z,3.00
2022-10-28T17:14:21.369Z,3.28
2022-10-28T17:16:48.976Z,3.15
2022-10-28T17:19:16.899Z,3.28
2022-10-28T17:21:44.374Z,3.20
2022-10-28T17:24:11.906Z,3.20
2022-10-28T17:26:39.378Z,3.13
2022-10-28T17:29:07.238Z,3.40
2022-10-28T17:31:36.274Z,3.30
2022-10-28T17:34:03.858Z,3.08
2022-10-28T17:36:31.360Z,3.10
2022-10-28T17:38:59.384Z,3.00
2022-10-28T17:41:26.904Z,2.90
2022-10-28T17:43:54.465Z,3.30
2022-10-28T17:46:24.009Z,3.10
2022-10-28T17:48:53.059Z,3.20
2022-10-28T17:51:22.243Z,3.00
2022-10-28T17:53:53.789Z,3.25
2022-10-28T17:56:21.439Z,3.15
2022-10-28T17:58:49.413Z,2.97
2022-10-28T18:01:17.352Z,3.00
2022-10-28T18:03:44.926Z,3.17
2022-10-28T18:06:14.168Z,3.10
2022-10-28T18:08:42.673Z,3.20
2022-10-28T18:11:11.267Z,3.35
2022-10-28T18:13:40.384Z,3.13
2022-10-28T18:16:08.548Z,3.10
2022-10-28T18:18:41.047Z,3.10
2022-10-28T18:21:11.062Z,3.17
2022-10-28T18:23:40.949Z,3.13
2022-10-28T18:26:10.432Z,3.40
2022-10-28T18:28:38.472Z,3.40
2022-10-28T18:31:07.275Z,3.30
2022-10-28T18:33:35.269Z,3.20
2022-10-28T18:36:03.094Z,3.30
2022-10-28T18:38:31.573Z,3.20
2022-10-28T18:41:00.705Z,3.30
2022-10-28T18:43:28.405Z,3.17
2022-10-28T18:45:55.940Z,2.90
2022-10-28T18:48:23.429Z,3.33
2022-10-28T18:50:56.849Z,3.03
2022-10-28T18:53:24.463Z,3.40
2022-10-28T18:55:52.037Z,3.20
2022-10-28T18:58:21.005Z,3.20
2022-10-28T19:00:50.237Z,3.08
2022-10-28T19:03:19.668Z,3.10
2022-10-28T19:05:47.141Z,3.30
2022-10-28T19:08:14.937Z,3.10
2022-10-28T19:10:46.332Z,3.30
2022-10-28T19:13:13.766Z,3.10
2022-10-28T19:15:48.143Z,3.17
2022-10-28T19:18:19.290Z,3.03
2022-10-28T19:20:47.063Z,3.15
2022-10-28T19:23:14.907Z,3.20
2022-10-28T19:25:42.941Z,2.63
2022-10-28T19:28:10.731Z,3.10
2022-10-28T19:30:38.185Z,3.30
2022-10-28T19:33:06.981Z,3.30
2022-10-28T19:35:38.259Z,3.30
2022-10-28T19:38:05.700Z,2.92
2022-10-28T19:40:33.460Z,3.20
2022-10-28T19:43:00.921Z,3.30
2022-10-28T19:45:28.361Z,3.10
2022-10-28T19:47:56.177Z,3.20
2022-10-28T19:50:25.304Z,3.30
2022-10-28T19:52:53.052Z,3.08
2022-10-28T19:55:23.168Z,3.30
2022-10-28T19:57:52.836Z,3.10
2022-10-28T20:00:21.192Z,3.25
2022-10-28T20:02:49.241Z,3.10
2022-10-28T20:05:16.807Z,3.28
2022-10-28T20:07:45.654Z,3.20
2022-10-28T20:10:14.937Z,3.30
2022-10-28T20:12:42.380Z,3.40
2022-10-28T20:15:10.290Z,3.08
2022-10-28T20:17:38.006Z,3.30
2022-10-28T20:20:05.779Z,3.10
2022-10-28T20:22:33.233Z,3.10
2022-10-28T20:25:13.121Z,3.33
2022-10-28T20:27:40.577Z,2.97
2022-10-28T20:30:09.341Z,3.00
2022-10-28T20:32:37.088Z,3.13
2022-10-28T20:35:04.685Z,3.28
2022-10-28T20:37:32.215Z,2.97
2022-10-28T20:40:01.632Z,2.85
2022-10-28T20:42:33.152Z,3.13
2022-10-28T20:45:00.765Z,3.25
2022-10-28T20:47:28.193Z,3.00
2022-10-28T20:49:56.814Z,3.00
2022-10-28T20:54:57.148Z,3.05
2022-10-28T20:57:25.028Z,3.10
2022-10-28T20:59:53.810Z,3.40
2022-10-28T21:02:21.446Z,3.20
2022-10-28T21:04:49.142Z,3.30
2022-10-28T21:07:16.581Z,2.80
2022-10-28T21:09:44.038Z,3.28
2022-10-28T21:12:11.467Z,3.20
2022-10-28T21:14:38.917Z,3.20
2022-10-28T21:17:07.700Z,3.40
2022-10-28T21:19:35.180Z,3.13
2022-10-28T21:22:02.632Z,3.17
2022-10-28T21:24:30.456Z,3.20
2022-10-28T21:26:57.889Z,3.08
2022-10-28T21:29:25.340Z,3.38
2022-10-28T21:31:52.824Z,3.20
2022-10-28T21:34:21.619Z,3.03
2022-10-28T21:36:49.056Z,3.00
2022-10-28T21:39:16.484Z,3.20
2022-10-28T21:41:43.896Z,3.10
2022-10-28T21:44:12.197Z,3.13
2022-10-28T21:46:39.713Z,3.20
2022-10-28T21:49:07.140Z,3.15
2022-10-28T21:51:35.917Z,3.30
2022-10-28T21:54:03.439Z,3.50
2022-10-28T21:56:31.065Z,3.40
2022-10-28T21:58:58.482Z,3.30
2022-10-28T22:01:26.179Z,3.25
2022-10-28T22:03:55.457Z,3.25
2022-10-28T22:06:23.445Z,3.13
2022-10-28T22:08:53.140Z,3.30
2022-10-28T22:11:21.340Z,3.30
2022-10-28T22:13:49.213Z,3.30
2022-10-28T22:16:17.413Z,3.30
2022-10-28T22:18:45.006Z,3.30
2022-10-28T22:21:13.208Z,3.30
2022-10-28T22:23:40.929Z,3.10
2022-10-28T22:26:10.996Z,2.90
2022-10-28T22:28:38.725Z,3.13
2022-10-28T22:31:07.570Z,3.40
2022-10-28T22:33:35.129Z,3.08
2022-10-28T22:36:03.656Z,3.13
2022-10-28T22:38:31.421Z,3.13
2022-10-28T22:41:02.282Z,3.20
2022-10-28T22:43:31.196Z,3.30
2022-10-28T22:45:58.873Z,3.20
2022-10-28T22:48:26.344Z,3.25
2022-10-28T22:50:53.844Z,2.83
2022-10-28T22:53:21.252Z,3.22
2022-10-28T22:55:49.032Z,3.22
2022-10-28T22:58:16.790Z,3.30
2022-10-28T23:00:45.732Z,3.10
2022-10-28T23:03:13.232Z,3.30
2022-10-28T23:05:40.977Z,3.20
2022-10-28T23:08:08.725Z,3.28
2022-10-28T23:10:36.282Z,3.10
2022-10-28T23:13:04.150Z,3.10
2022-10-28T23:15:31.612Z,3.00
2022-10-28T23:18:00.437Z,3.20
2022-10-28T23:20:27.864Z,3.10
2022-10-28T23:22:56.153Z,3.05
2022-10-28T23:25:23.625Z,3.13
2022-10-28T23:27:51.040Z,3.10
2022-10-28T23:30:18.539Z,3.20
2022-10-28T23:32:45.995Z,3.30
2022-10-28T23:35:14.798Z,3.20
2022-10-28T23:37:42.243Z,3.40
2022-10-28T23:40:11.088Z,3.20
2022-10-28T23:42:38.550Z,3.17
2022-10-28T23:45:06.666Z,3.30
2022-10-28T23:47:34.345Z,3.40
2022-10-28T23:50:01.783Z,3.40
2022-10-28T23:52:30.561Z,3.60
2022-10-28T23:54:57.980Z,3.30
2022-10-28T23:57:25.431Z,3.10
2022-10-28T23:59:53.564Z,3.40
